Time;durP1;ratioP1;P1;durP2;ratioP2;P2;SDS_P1;SDS_P2;PMS_P1;PMS_P2;Temp;Humidity;BMP_temperature;BMP_pressure;BME280_temperature;BME280_humidity;BME280_pressure;Samples;Min_cycle;Max_cycle;Signal;HPM_P1;HPM_P2
2022/01/07 00:00:25;;;;;;;0.10;0.10;;;1.30;99.90;;;;;;5089114;28;20026;-74
2022/01/07 00:02:54;;;;;;;0.10;0.10;;;1.20;99.90;;;;;;5093998;28;20486;-73
2022/01/07 00:05:21;;;;;;;0.10;0.10;;;1.30;99.90;;;;;;5100740;28;20018;-74
2022/01/07 00:07:47;;;;;;;0.32;0.32;;;1.30;99.90;;;;;;5092798;28;20025;-71
2022/01/07 00:10:16;;;;;;;0.10;0.10;;;1.30;99.90;;;;;;5089757;28;20034;-74
2022/01/07 00:12:42;;;;;;;0.10;0.10;;;1.20;99.90;;;;;;5098098;28;20064;-74
2022/01/07 00:15:08;;;;;;;0.10;0.10;;;1.20;99.90;;;;;;5084863;28;20028;-74
2022/01/07 00:17:34;;;;;;;0.10;0.10;;;1.20;99.90;;;;;;5095000;28;20096;-74
2022/01/07 00:20:00;;;;;;;0.10;0.10;;;1.20;99.90;;;;;;5090736;28;20028;-74
2022/01/07 00:22:26;;;;;;;0.52;0.52;;;1.20;99.90;;;;;;5090550;28;20469;-74
2022/01/07 00:24:52;;;;;;;0.43;0.43;;;1.20;99.90;;;;;;5071859;28;20024;-76
2022/01/07 00:27:18;;;;;;;1.00;1.00;;;1.20;99.90;;;;;;5071287;28;20389;-74
2022/01/07 00:29:43;;;;;;;0.10;0.10;;;1.10;99.90;;;;;;5076359;28;20039;-74
2022/01/07 00:32:09;;;;;;;1.10;1.00;;;1.10;99.90;;;;;;5089749;28;20036;-74
2022/01/07 00:34:35;;;;;;;1.88;1.77;;;1.00;99.90;;;;;;5086989;28;20016;-75
2022/01/07 00:37:00;;;;;;;0.10;0.10;;;1.00;99.90;;;;;;5070590;28;20037;-74
2022/01/07 00:39:26;;;;;;;0.73;0.73;;;1.10;99.90;;;;;;5072099;28;20502;-74
2022/01/07 00:41:51;;;;;;;1.45;1.35;;;1.10;99.90;;;;;;5070790;28;20032;-75
2022/01/07 00:44:17;;;;;;;0.10;0.10;;;1.10;99.90;;;;;;5071174;28;20037;-74
2022/01/07 00:46:43;;;;;;;0.10;0.10;;;1.10;99.90;;;;;;5072594;28;20472;-74
2022/01/07 00:49:08;;;;;;;0.10;0.10;;;1.10;99.90;;;;;;5073030;28;20090;-73
2022/01/07 00:51:34;;;;;;;0.10;0.10;;;1.10;99.90;;;;;;5074013;28;20067;-74
2022/01/07 00:54:00;;;;;;;0.10;0.10;;;1.20;99.90;;;;;;5085534;28;20036;-74
2022/01/07 00:56:25;;;;;;;0.10;0.10;;;1.10;99.90;;;;;;5090651;28;20031;-74
2022/01/07 00:58:51;;;;;;;0.10;0.10;;;1.10;99.90;;;;;;5090933;28;20031;-74
2022/01/07 01:01:17;;;;;;;0.10;0.10;;;1.00;99.90;;;;;;5081888;28;20371;-74
2022/01/07 01:03:43;;;;;;;0.20;0.20;;;1.00;99.90;;;;;;5082139;28;20048;-74
2022/01/07 01:06:09;;;;;;;0.10;0.10;;;1.00;99.90;;;;;;5094932;28;20043;-74
2022/01/07 01:08:35;;;;;;;0.10;0.10;;;1.00;99.90;;;;;;5089140;28;20037;-74
2022/01/07 01:11:01;;;;;;;0.20;0.20;;;1.00;99.90;;;;;;5071030;28;20032;-74
2022/01/07 01:13:26;;;;;;;0.25;0.25;;;1.00;99.90;;;;;;5077721;28;20246;-75
2022/01/07 01:15:52;;;;;;;0.10;0.10;;;1.00;99.90;;;;;;5091588;28;20028;-73
2022/01/07 01:18:18;;;;;;;0.10;0.10;;;0.90;99.90;;;;;;5101827;28;20040;-75
2022/01/07 01:20:44;;;;;;;0.10;0.10;;;0.90;99.90;;;;;;5111063;28;20051;-75
2022/01/07 01:23:10;;;;;;;0.10;0.10;;;0.90;99.90;;;;;;5111577;28;20016;-74
2022/01/07 01:25:35;;;;;;;0.10;0.10;;;0.90;99.90;;;;;;5097144;28;20253;-74
2022/01/07 01:28:01;;;;;;;0.30;0.30;;;1.00;99.90;;;;;;5107376;28;20056;-74
2022/01/07 01:30:28;;;;;;;0.10;0.10;;;0.90;99.90;;;;;;5089549;28;20044;-75
2022/01/07 01:32:54;;;;;;;0.10;0.10;;;1.00;99.90;;;;;;5093201;28;20027;-74
2022/01/07 01:35:20;;;;;;;0.10;0.10;;;0.90;99.90;;;;;;5096189;28;20024;-74
2022/01/07 01:37:47;;;;;;;0.10;0.10;;;0.90;99.90;;;;;;5090350;28;20032;-75
2022/01/07 01:40:14;;;;;;;0.10;0.10;;;0.90;99.90;;;;;;5083825;23;20045;-71
2022/01/07 01:42:40;;;;;;;0.10;0.10;;;0.80;99.90;;;;;;5071759;28;20013;-71
2022/01/07 01:45:08;;;;;;;0.10;0.10;;;0.80;99.90;;;;;;5066569;28;20048;-71
2022/01/07 01:47:34;;;;;;;0.63;0.63;;;0.70;99.90;;;;;;5071764;28;20068;-72
2022/01/07 01:50:00;;;;;;;0.43;0.43;;;0.70;99.90;;;;;;5072710;28;20032;-71
2022/01/07 01:52:25;;;;;;;0.10;0.10;;;0.60;99.90;;;;;;5063703;28;20087;-72
2022/01/07 01:54:51;;;;;;;0.90;0.90;;;0.60;99.90;;;;;;5056000;28;20025;-71
2022/01/07 01:57:17;;;;;;;0.10;0.10;;;0.70;99.90;;;;;;5058388;28;20029;-73
2022/01/07 01:59:42;;;;;;;0.10;0.10;;;0.70;99.90;;;;;;5057938;28;20081;-71
2022/01/07 02:02:08;;;;;;;0.52;0.52;;;0.70;99.90;;;;;;5047008;28;20544;-72
2022/01/07 02:04:37;;;;;;;0.43;0.43;;;0.70;99.90;;;;;;5055278;28;20025;-71
2022/01/07 02:07:03;;;;;;;0.17;0.17;;;0.70;99.90;;;;;;5056377;28;20021;-72
2022/01/07 02:09:35;;;;;;;0.10;0.10;;;0.80;99.90;;;;;;5055447;28;20487;-72
2022/01/07 02:12:04;;;;;;;0.10;0.10;;;0.80;99.90;;;;;;5037911;28;20037;-71
2022/01/07 02:14:30;;;;;;;0.10;0.10;;;0.80;99.90;;;;;;5035999;28;20428;-72
2022/01/07 02:17:07;;;;;;;0.47;0.47;;;0.80;99.90;;;;;;5060882;28;20051;-71
2022/01/07 02:19:32;;;;;;;0.10;0.10;;;0.80;99.90;;;;;;5067356;28;20033;-71
2022/01/07 02:21:58;;;;;;;0.10;0.10;;;0.90;99.90;;;;;;5053278;28;20051;-72
2022/01/07 02:24:24;;;;;;;0.25;0.25;;;0.90;99.90;;;;;;5054151;28;20121;-71
2022/01/07 02:26:49;;;;;;;0.20;0.20;;;1.00;99.90;;;;;;5069854;28;20039;-71
2022/01/07 02:29:15;;;;;;;0.68;0.68;;;1.00;99.90;;;;;;5038226;28;20079;-72
2022/01/07 02:31:41;;;;;;;0.20;0.20;;;1.00;99.90;;;;;;5063437;28;20013;-72
2022/01/07 02:34:06;;;;;;;0.10;0.10;;;1.00;99.90;;;;;;5079693;28;20493;-71
2022/01/07 02:36:32;;;;;;;0.30;0.30;;;1.00;99.90;;;;;;5066107;28;20040;-71
2022/01/07 02:38:57;;;;;;;0.10;0.10;;;1.10;99.90;;;;;;5031390;28;20037;-71
2022/01/07 02:41:23;;;;;;;0.10;0.10;;;1.10;99.90;;;;;;5046845;28;20538;-72
2022/01/07 02:43:49;;;;;;;0.10;0.10;;;1.00;99.90;;;;;;5051434;28;20029;-72
2022/01/07 02:46:14;;;;;;;0.10;0.10;;;1.00;99.90;;;;;;5047735;28;20044;-71
2022/01/07 02:48:40;;;;;;;0.10;0.10;;;1.00;99.90;;;;;;5050600;28;20063;-71
2022/01/07 02:51:07;;;;;;;0.20;0.20;;;1.00;99.90;;;;;;5049108;28;20033;-72
2022/01/07 02:53:32;;;;;;;0.10;0.10;;;1.00;99.90;;;;;;5051093;28;20100;-71
2022/01/07 02:55:58;;;;;;;0.15;0.15;;;1.00;99.90;;;;;;5047455;28;20099;-72
2022/01/07 02:58:23;;;;;;;0.38;0.38;;;1.00;99.90;;;;;;5050707;28;20100;-72
2022/01/07 03:00:49;;;;;;;0.80;0.80;;;1.00;99.90;;;;;;5050748;28;20394;-71
2022/01/07 03:03:15;;;;;;;0.10;0.10;;;1.00;99.90;;;;;;5047808;28;20033;-71
2022/01/07 03:05:41;;;;;;;0.30;0.30;;;1.00;99.90;;;;;;5048848;28;20036;-72
2022/01/07 03:08:08;;;;;;;0.10;0.10;;;0.90;99.90;;;;;;5050549;28;20463;-71
2022/01/07 03:10:34;;;;;;;0.10;0.10;;;0.90;99.90;;;;;;5050398;28;20029;-71
2022/01/07 03:13:02;;;;;;;0.10;0.10;;;0.90;99.90;;;;;;5033551;28;20021;-71
2022/01/07 03:15:29;;;;;;;0.10;0.10;;;0.90;99.90;;;;;;5030486;28;20096;-72
2022/01/07 03:17:54;;;;;;;0.32;0.32;;;0.90;99.90;;;;;;5030434;28;20021;-71
2022/01/07 03:20:21;;;;;;;0.10;0.10;;;0.90;99.90;;;;;;5040992;28;20025;-71
2022/01/07 03:22:47;;;;;;;0.10;0.10;;;0.90;99.90;;;;;;5050023;28;20064;-72
2022/01/07 03:25:14;;;;;;;0.10;0.10;;;0.80;99.90;;;;;;5049607;28;20096;-71
2022/01/07 03:27:40;;;;;;;0.10;0.10;;;0.80;99.90;;;;;;5030918;28;20029;-71
2022/01/07 03:30:09;;;;;;;0.10;0.10;;;0.70;99.90;;;;;;5041492;28;20150;-72
2022/01/07 03:32:34;;;;;;;0.63;0.63;;;0.70;99.90;;;;;;5049986;28;20017;-71
2022/01/07 03:35:00;;;;;;;0.15;0.15;;;0.70;99.90;;;;;;5049519;28;20462;-71
2022/01/07 03:37:26;;;;;;;0.10;0.10;;;1.10;99.90;;;;;;5039145;28;20065;-71
2022/01/07 03:39:52;;;;;;;0.10;0.10;;;0.60;99.90;;;;;;5048132;28;20125;-70
2022/01/07 03:42:18;;;;;;;0.10;0.10;;;0.60;99.90;;;;;;5048958;28;20036;-70
2022/01/07 03:44:44;;;;;;;0.40;0.38;;;0.60;99.90;;;;;;5055908;28;20414;-71
2022/01/07 03:47:09;;;;;;;0.10;0.10;;;0.60;99.90;;;;;;5049386;28;20021;-71
2022/01/07 03:49:35;;;;;;;0.10;0.10;;;0.60;99.90;;;;;;5049976;28;20427;-72
2022/01/07 03:52:01;;;;;;;0.30;0.30;;;0.50;99.90;;;;;;5049763;28;20446;-72
2022/01/07 03:54:26;;;;;;;0.10;0.10;;;0.60;99.90;;;;;;5044470;28;20423;-72
2022/01/07 03:56:52;;;;;;;0.10;0.10;;;0.60;99.90;;;;;;5047639;28;20067;-71
2022/01/07 03:59:18;;;;;;;0.10;0.10;;;0.60;99.90;;;;;;5049339;28;20083;-70
2022/01/07 04:01:43;;;;;;;0.10;0.10;;;0.60;99.90;;;;;;5041804;28;20057;-71
2022/01/07 04:04:09;;;;;;;0.10;0.10;;;0.60;99.90;;;;;;5044688;28;20037;-70
2022/01/07 04:06:34;;;;;;;0.10;0.10;;;0.60;99.90;;;;;;5035815;28;20578;-71
2022/01/07 04:09:00;;;;;;;0.10;0.10;;;0.60;99.90;;;;;;5029457;28;20013;-71
2022/01/07 04:11:26;;;;;;;0.10;0.10;;;0.60;99.90;;;;;;5046096;28;20390;-71
2022/01/07 04:13:51;;;;;;;0.10;0.10;;;0.50;99.90;;;;;;5049503;28;20021;-71
2022/01/07 04:16:17;;;;;;;1.65;1.55;;;0.40;99.90;;;;;;5031390;28;20045;-71
2022/01/07 04:18:43;;;;;;;0.65;0.65;;;0.40;99.90;;;;;;5029380;28;20391;-71
2022/01/07 04:21:09;;;;;;;0.10;0.10;;;0.40;99.90;;;;;;5029476;28;20033;-72
2022/01/07 04:23:35;;;;;;;0.10;0.10;;;0.50;99.90;;;;;;5029925;28;20037;-71
2022/01/07 04:26:00;;;;;;;0.17;0.17;;;0.50;99.90;;;;;;5047361;28;20036;-70
2022/01/07 04:28:26;;;;;;;0.52;0.52;;;0.60;99.90;;;;;;5048920;28;20074;-71
2022/01/07 04:30:52;;;;;;;0.10;0.10;;;0.50;99.90;;;;;;5049362;28;20053;-71
2022/01/07 04:33:25;;;;;;;0.10;0.10;;;0.60;99.90;;;;;;5034379;28;20037;-70
2022/01/07 04:35:52;;;;;;;0.28;0.28;;;0.60;99.90;;;;;;5049092;28;20458;-71
2022/01/07 04:38:18;;;;;;;0.20;0.20;;;0.60;99.90;;;;;;5048335;28;20479;-72
2022/01/07 04:40:43;;;;;;;1.13;1.13;;;0.60;99.90;;;;;;5040996;28;20045;-70
2022/01/07 04:43:09;;;;;;;0.10;0.10;;;0.50;99.90;;;;;;5048418;28;20092;-71
2022/01/07 04:45:36;;;;;;;0.75;0.75;;;0.50;99.90;;;;;;5048426;28;20541;-70
2022/01/07 04:48:01;;;;;;;0.10;0.10;;;0.40;99.90;;;;;;5044606;28;20092;-71
2022/01/07 04:50:27;;;;;;;0.10;0.10;;;0.40;99.90;;;;;;5060818;28;20526;-71
2022/01/07 04:52:54;;;;;;;0.03;0.03;;;0.40;99.90;;;;;;5048800;28;20025;-72
2022/01/07 04:55:25;;;;;;;0.10;0.10;;;0.40;99.90;;;;;;5048424;28;20024;-71
2022/01/07 04:57:52;;;;;;;0.10;0.10;;;0.40;99.90;;;;;;5041542;28;20494;-71
2022/01/07 05:00:21;;;;;;;0.10;0.10;;;0.30;99.90;;;;;;5028351;28;20038;-72
2022/01/07 05:02:47;;;;;;;0.10;0.10;;;0.30;99.90;;;;;;5042301;28;20050;-71
2022/01/07 05:05:13;;;;;;;0.10;0.10;;;0.30;99.90;;;;;;5048659;28;20036;-71
2022/01/07 05:07:38;;;;;;;0.57;0.57;;;0.20;99.90;;;;;;5043201;28;20029;-71
2022/01/07 05:10:07;;;;;;;0.10;0.10;;;0.20;99.90;;;;;;5052984;28;20037;-72
2022/01/07 05:12:32;;;;;;;0.10;0.10;;;0.20;99.90;;;;;;5052816;28;20116;-71
2022/01/07 05:14:58;;;;;;;1.48;1.38;;;0.20;99.90;;;;;;5052169;28;20123;-71
2022/01/07 05:17:24;;;;;;;0.10;0.10;;;0.20;99.90;;;;;;5045138;28;20475;-72
2022/01/07 05:19:49;;;;;;;0.10;0.10;;;0.20;99.90;;;;;;5032607;28;20041;-70
2022/01/07 05:22:16;;;;;;;0.10;0.10;;;0.10;99.90;;;;;;5040763;28;20071;-71
2022/01/07 05:24:41;;;;;;;0.35;0.35;;;0.20;99.90;;;;;;5052373;28;20043;-72
2022/01/07 05:27:07;;;;;;;0.10;0.10;;;0.20;99.90;;;;;;5045084;28;20363;-70
2022/01/07 05:29:35;;;;;;;0.10;0.10;;;0.20;99.90;;;;;;5032171;28;20138;-71
2022/01/07 05:32:02;;;;;;;0.10;0.10;;;0.20;99.90;;;;;;5032567;28;20037;-72
2022/01/07 05:34:28;;;;;;;0.22;0.22;;;0.20;99.90;;;;;;5043429;28;20086;-71
2022/01/07 05:36:53;;;;;;;0.10;0.10;;;0.20;99.90;;;;;;5047790;28;20029;-72
2022/01/07 05:39:19;;;;;;;0.10;0.10;;;0.20;99.90;;;;;;5050463;28;20036;-72
2022/01/07 05:41:45;;;;;;;2.55;2.35;;;0.20;99.90;;;;;;5052362;28;20024;-72
2022/01/07 05:44:10;;;;;;;0.10;0.10;;;0.20;99.90;;;;;;5048277;28;20039;-72
2022/01/07 05:46:36;;;;;;;0.10;0.10;;;0.20;99.90;;;;;;5031730;28;20037;-71
2022/01/07 05:49:02;;;;;;;0.10;0.10;;;0.30;99.90;;;;;;5032341;28;20048;-71
2022/01/07 05:51:27;;;;;;;0.10;0.10;;;0.40;99.90;;;;;;5042279;28;20521;-71
2022/01/07 05:53:53;;;;;;;0.10;0.10;;;0.40;99.90;;;;;;5045399;28;20523;-71
2022/01/07 05:56:18;;;;;;;0.10;0.10;;;0.30;99.90;;;;;;5031694;28;20040;-73
2022/01/07 05:58:44;;;;;;;0.10;0.10;;;0.40;99.90;;;;;;5031978;28;20542;-71
2022/01/07 06:01:11;;;;;;;0.10;0.10;;;0.40;99.90;;;;;;5046856;28;20123;-71
2022/01/07 06:03:37;;;;;;;0.10;0.10;;;0.40;99.90;;;;;;5061823;28;20021;-71
2022/01/07 06:06:03;;;;;;;0.10;0.10;;;0.40;99.90;;;;;;5051018;28;20033;-71
2022/01/07 06:08:29;;;;;;;0.10;0.10;;;0.40;99.90;;;;;;5051468;28;20507;-72
2022/01/07 06:10:54;;;;;;;0.10;0.10;;;0.40;99.90;;;;;;5050532;28;20105;-71
2022/01/07 06:13:20;;;;;;;0.10;0.10;;;0.40;99.90;;;;;;5031737;28;20438;-71
2022/01/07 06:15:46;;;;;;;0.10;0.10;;;0.40;99.90;;;;;;5031207;28;20029;-73
2022/01/07 06:18:11;;;;;;;0.10;0.10;;;0.30;99.90;;;;;;5031211;28;20455;-72
2022/01/07 06:20:37;;;;;;;0.10;0.10;;;0.30;99.90;;;;;;5048979;28;20067;-71
2022/01/07 06:23:03;;;;;;;0.10;0.10;;;0.30;99.90;;;;;;5051809;28;20025;-71
2022/01/07 06:25:29;;;;;;;0.10;0.10;;;0.30;99.90;;;;;;5050977;28;20235;-72
2022/01/07 06:27:54;;;;;;;0.80;0.80;;;0.40;99.90;;;;;;5051643;28;20082;-73
2022/01/07 06:30:20;;;;;;;0.10;0.10;;;0.40;99.90;;;;;;5036698;28;20468;-73
2022/01/07 06:32:46;;;;;;;0.10;0.10;;;0.50;99.90;;;;;;5051344;28;20014;-72
2022/01/07 06:35:12;;;;;;;0.10;0.10;;;0.50;99.90;;;;;;5050527;28;20166;-72
2022/01/07 06:37:38;;;;;;;0.10;0.10;;;0.40;99.90;;;;;;5046467;28;20140;-72
2022/01/07 06:40:05;;;;;;;0.30;0.30;;;0.50;99.90;;;;;;5031288;28;20049;-72
2022/01/07 06:42:31;;;;;;;3.78;3.50;;;0.50;99.90;;;;;;5048159;28;20371;-72
2022/01/07 06:44:57;;;;;;;0.10;0.10;;;0.50;99.90;;;;;;5051037;28;20028;-72
2022/01/07 06:47:23;;;;;;;0.10;0.10;;;0.50;99.90;;;;;;5033789;28;20497;-72
2022/01/07 06:49:49;;;;;;;0.20;0.20;;;0.50;99.90;;;;;;5049189;28;20025;-72
2022/01/07 06:52:14;;;;;;;0.10;0.10;;;0.50;99.90;;;;;;5050602;28;20482;-71
2022/01/07 06:54:40;;;;;;;0.10;0.10;;;0.50;99.90;;;;;;5050539;28;20017;-72
2022/01/07 06:57:06;;;;;;;0.10;0.10;;;0.50;99.90;;;;;;5051331;28;20106;-71
2022/01/07 06:59:31;;;;;;;0.10;0.10;;;0.50;99.90;;;;;;5050546;28;20540;-72
2022/01/07 07:01:57;;;;;;;0.10;0.10;;;0.50;99.90;;;;;;5050650;28;20509;-71
2022/01/07 07:04:23;;;;;;;0.10;0.10;;;0.50;99.90;;;;;;5044920;28;20108;-71
2022/01/07 07:06:49;;;;;;;0.10;0.10;;;0.50;99.90;;;;;;5030903;28;20033;-73
2022/01/07 07:09:17;;;;;;;0.45;0.45;;;0.50;99.90;;;;;;5030535;28;20391;-72
2022/01/07 07:11:43;;;;;;;0.10;0.10;;;0.50;99.90;;;;;;5040368;28;20470;-72
2022/01/07 07:14:10;;;;;;;1.15;1.10;;;0.60;99.90;;;;;;5058628;28;20027;-72
2022/01/07 07:16:36;;;;;;;0.10;0.10;;;0.60;99.90;;;;;;5065996;28;20055;-72
2022/01/07 07:19:01;;;;;;;0.10;0.10;;;0.60;99.90;;;;;;5051634;28;20612;-72
2022/01/07 07:21:27;;;;;;;0.10;0.10;;;0.60;99.90;;;;;;5049869;28;20039;-72
2022/01/07 07:23:52;;;;;;;0.10;0.10;;;0.60;99.90;;;;;;5034514;28;20025;-71
2022/01/07 07:26:18;;;;;;;0.10;0.10;;;0.60;99.90;;;;;;5032243;28;20029;-72
2022/01/07 07:28:44;;;;;;;0.15;0.15;;;0.60;99.90;;;;;;5050134;28;20413;-72
2022/01/07 07:31:13;;;;;;;0.10;0.10;;;0.80;99.90;;;;;;5048555;28;20375;-72
2022/01/07 07:36:31;;;;;;;0.10;0.10;;;0.70;99.90;;;;;;5048553;28;20573;-71
2022/01/07 07:39:09;;;;;;;0.10;0.10;;;0.70;99.90;;;;;;5062700;22;20114;-69
2022/01/07 07:41:36;;;;;;;0.10;0.10;;;0.70;99.90;;;;;;5036903;28;20041;-69
2022/01/07 07:44:04;;;;;;;0.10;0.10;;;0.80;99.90;;;;;;5049562;28;20013;-69
2022/01/07 07:46:32;;;;;;;0.10;0.10;;;0.70;99.90;;;;;;5049801;28;20075;-70
2022/01/07 07:49:03;;;;;;;0.10;0.10;;;1.10;99.90;;;;;;5047545;28;20029;-69
2022/01/07 07:51:29;;;;;;;0.20;0.20;;;0.80;99.90;;;;;;5050345;28;20021;-69
2022/01/07 07:53:55;;;;;;;0.10;0.10;;;0.80;99.90;;;;;;5050185;28;20028;-70
2022/01/07 07:56:21;;;;;;;0.10;0.10;;;0.80;99.90;;;;;;5048437;28;20036;-70
2022/01/07 07:58:47;;;;;;;0.57;0.57;;;0.80;99.90;;;;;;5043959;28;20048;-70
2022/01/07 08:01:13;;;;;;;0.10;0.10;;;0.80;99.90;;;;;;5046158;28;20029;-70
2022/01/07 08:03:40;;;;;;;0.13;0.13;;;0.80;99.90;;;;;;5049519;28;20090;-70
2022/01/07 08:06:06;;;;;;;0.30;0.30;;;0.80;99.90;;;;;;5049469;28;20545;-70
2022/01/07 08:08:32;;;;;;;0.10;0.10;;;0.80;99.90;;;;;;5044951;28;20025;-70
2022/01/07 08:11:01;;;;;;;0.65;0.65;;;0.80;99.90;;;;;;5049814;28;20031;-70
2022/01/07 08:13:30;;;;;;;0.68;0.68;;;0.80;99.90;;;;;;5049462;28;20123;-71
2022/01/07 08:16:01;;;;;;;0.10;0.10;;;0.80;99.90;;;;;;5045999;28;20040;-71
2022/01/07 08:18:35;;;;;;;0.10;0.10;;;0.90;99.90;;;;;;5051103;28;20036;-69
2022/01/07 08:21:11;;;;;;;0.28;0.28;;;0.90;99.90;;;;;;5050246;28;20036;-71
2022/01/07 08:23:40;;;;;;;0.10;0.10;;;0.90;99.90;;;;;;5047283;28;20079;-72
2022/01/07 08:26:09;;;;;;;0.10;0.10;;;1.00;99.90;;;;;;5048614;28;20028;-70
2022/01/07 08:28:41;;;;;;;0.10;0.10;;;1.00;99.90;;;;;;5047485;28;20116;-69
2022/01/07 08:36:20;;;;;;;0.10;0.10;;;1.10;99.90;;;;;;5048251;28;20040;-69
2022/01/07 08:38:47;;;;;;;0.10;0.10;;;1.20;99.90;;;;;;5048164;28;20039;-70
2022/01/07 08:41:13;;;;;;;0.10;0.10;;;1.20;99.90;;;;;;5036132;28;20030;-70
2022/01/07 08:43:39;;;;;;;0.10;0.10;;;1.20;99.90;;;;;;5039051;28;20103;-70
2022/01/07 08:46:06;;;;;;;0.10;0.10;;;1.30;99.90;;;;;;5046593;28;20533;-70
2022/01/07 08:48:33;;;;;;;0.10;0.10;;;1.30;99.90;;;;;;5049154;28;20025;-70
2022/01/07 08:51:02;;;;;;;0.10;0.10;;;1.30;99.90;;;;;;5045787;28;20510;-70
2022/01/07 08:53:28;;;;;;;0.10;0.10;;;1.40;99.90;;;;;;5049226;28;20021;-70
2022/01/07 08:55:54;;;;;;;0.10;0.10;;;1.40;99.90;;;;;;5049118;28;20055;-70
2022/01/07 08:58:19;;;;;;;0.10;0.10;;;1.50;99.90;;;;;;5045133;28;20434;-70
2022/01/07 09:00:45;;;;;;;0.10;0.10;;;1.50;99.90;;;;;;5041614;28;20032;-70
2022/01/07 09:03:10;;;;;;;0.10;0.10;;;1.50;99.90;;;;;;5049398;28;20033;-70
2022/01/07 09:05:36;;;;;;;0.10;0.10;;;1.60;99.90;;;;;;5048672;28;20487;-69
2022/01/07 09:08:02;;;;;;;0.10;0.10;;;1.60;99.90;;;;;;5041981;28;20063;-70
2022/01/07 09:10:27;;;;;;;0.10;0.10;;;1.70;99.90;;;;;;5048708;28;20028;-69
2022/01/07 09:12:53;;;;;;;0.10;0.10;;;1.70;99.90;;;;;;5048418;28;20490;-68
2022/01/07 09:15:19;;;;;;;0.10;0.10;;;1.70;99.90;;;;;;5044697;28;20032;-69
2022/01/07 09:17:45;;;;;;;0.10;0.10;;;1.70;99.90;;;;;;5046165;28;20021;-68
2022/01/07 09:20:11;;;;;;;0.10;0.10;;;1.60;99.90;;;;;;5046352;28;20527;-70
2022/01/07 09:22:37;;;;;;;0.10;0.10;;;1.60;99.90;;;;;;5044761;28;20111;-71
2022/01/07 09:25:05;;;;;;;0.82;0.82;;;1.70;99.90;;;;;;5041002;28;20040;-69
2022/01/07 09:27:31;;;;;;;0.20;0.20;;;1.60;99.90;;;;;;5039136;28;20021;-69
2022/01/07 09:29:57;;;;;;;0.10;0.10;;;1.70;99.90;;;;;;5047654;28;20043;-70
2022/01/07 09:32:23;;;;;;;0.10;0.10;;;1.70;99.90;;;;;;5048421;28;20467;-70
2022/01/07 09:34:49;;;;;;;0.10;0.10;;;1.80;99.90;;;;;;5040102;28;20021;-70
2022/01/07 09:37:14;;;;;;;0.10;0.10;;;1.80;99.90;;;;;;5047836;28;20040;-70
2022/01/07 09:39:40;;;;;;;0.10;0.10;;;2.00;99.90;;;;;;5048614;28;20039;-69
2022/01/07 09:42:07;;;;;;;0.47;0.47;;;2.00;99.90;;;;;;5040394;28;20108;-70
2022/01/07 09:44:38;;;;;;;0.10;0.10;;;2.10;99.90;;;;;;5043876;28;20039;-69
2022/01/07 09:47:04;;;;;;;0.10;0.10;;;2.10;99.90;;;;;;5057715;28;20025;-70
2022/01/07 09:49:33;;;;;;;0.10;0.10;;;2.20;99.90;;;;;;5042319;28;20029;-70
2022/01/07 09:52:00;;;;;;;0.88;0.88;;;2.20;99.90;;;;;;5044273;28;20364;-69
2022/01/07 09:54:26;;;;;;;0.10;0.10;;;2.30;99.90;;;;;;5030304;28;20032;-69
2022/01/07 09:56:52;;;;;;;0.20;0.20;;;2.40;99.90;;;;;;5032543;28;20104;-69
2022/01/07 09:59:18;;;;;;;0.10;0.10;;;2.50;99.90;;;;;;5032415;28;20041;-69
2022/01/07 10:01:56;;;;;;;0.10;0.10;;;2.30;99.90;;;;;;5051617;28;20037;-69
2022/01/07 10:04:33;;;;;;;0.10;0.10;;;2.50;99.90;;;;;;5051686;28;20091;-69
2022/01/07 10:07:20;;;;;;;0.10;0.10;;;2.60;99.90;;;;;;5044145;28;20029;-70
2022/01/07 10:10:06;;;;;;;2.75;2.55;;;2.60;99.90;;;;;;5031912;28;20278;-69
2022/01/07 10:12:48;;;;;;;0.10;0.10;;;2.50;99.90;;;;;;5032166;28;20028;-69
2022/01/07 10:15:22;;;;;;;0.10;0.10;;;2.50;99.90;;;;;;5039812;28;20018;-69
2022/01/07 10:18:07;;;;;;;0.10;0.10;;;2.40;99.90;;;;;;5063488;28;20044;-70
2022/01/07 10:20:37;;;;;;;0.10;0.10;;;2.40;99.90;;;;;;5047737;28;20037;-69
2022/01/07 10:23:08;;;;;;;0.43;0.43;;;2.40;99.90;;;;;;5050273;28;20478;-71
2022/01/07 10:25:36;;;;;;;0.90;0.90;;;2.40;99.90;;;;;;5051482;28;20036;-71
2022/01/07 10:28:11;;;;;;;0.10;0.10;;;2.40;99.90;;;;;;5050782;28;20029;-69
2022/01/07 10:30:44;;;;;;;0.10;0.10;;;2.30;99.90;;;;;;5051551;28;20021;-70
2022/01/07 10:33:25;;;;;;;0.10;0.10;;;2.30;99.90;;;;;;5052208;28;20470;-70
2022/01/07 10:35:56;;;;;;;0.10;0.10;;;2.20;99.90;;;;;;5042970;28;20107;-69
2022/01/07 10:38:23;;;;;;;2.28;1.90;;;2.20;99.90;;;;;;5047501;28;20100;-70
2022/01/07 10:40:51;;;;;;;0.10;0.10;;;2.20;99.90;;;;;;5049906;28;20171;-70
2022/01/07 10:43:21;;;;;;;0.10;0.10;;;2.30;99.90;;;;;;5049139;28;20027;-69
2022/01/07 10:45:49;;;;;;;0.10;0.10;;;2.30;99.90;;;;;;5048420;28;20025;-70
2022/01/07 10:48:16;;;;;;;0.10;0.10;;;2.30;99.90;;;;;;5049970;28;20025;-70
2022/01/07 10:50:47;;;;;;;0.10;0.10;;;2.20;99.90;;;;;;5050565;28;20111;-68
2022/01/07 10:53:33;;;;;;;0.10;0.10;;;2.20;99.90;;;;;;5049035;28;20501;-69
2022/01/07 10:56:12;;;;;;;0.20;0.20;;;2.30;99.90;;;;;;5051718;28;20041;-69
2022/01/07 10:58:46;;;;;;;0.10;0.10;;;2.20;99.90;;;;;;5050164;28;20029;-69
2022/01/07 11:01:21;;;;;;;0.10;0.10;;;2.10;99.90;;;;;;5047344;28;20028;-71
2022/01/07 11:03:50;;;;;;;0.10;0.10;;;2.00;99.90;;;;;;5049631;28;20025;-69
2022/01/07 11:06:16;;;;;;;0.10;0.10;;;1.90;99.90;;;;;;5049227;28;20029;-70
2022/01/07 11:08:42;;;;;;;0.10;0.10;;;1.90;99.90;;;;;;5047920;28;20039;-70
2022/01/07 11:11:08;;;;;;;0.10;0.10;;;1.90;99.90;;;;;;5049269;28;20048;-70
2022/01/07 11:13:36;;;;;;;0.10;0.10;;;1.90;99.90;;;;;;5045009;28;20037;-71
2022/01/07 11:16:03;;;;;;;0.15;0.15;;;1.90;99.90;;;;;;5048430;28;20025;-70
2022/01/07 11:18:29;;;;;;;0.10;0.10;;;2.00;99.90;;;;;;5049259;28;20086;-74
2022/01/07 11:20:58;;;;;;;0.10;0.10;;;2.00;99.90;;;;;;5037933;28;20036;-70
2022/01/07 11:23:28;;;;;;;0.10;0.10;;;2.00;99.90;;;;;;5036056;28;20137;-71
2022/01/07 11:26:03;;;;;;;0.10;0.10;;;2.10;99.90;;;;;;5034846;28;20479;-70
2022/01/07 11:28:30;;;;;;;0.10;0.10;;;2.20;99.90;;;;;;5037196;28;20033;-69
2022/01/07 11:31:09;;;;;;;0.10;0.10;;;2.20;99.90;;;;;;5034579;28;20033;-69
2022/01/07 11:33:35;;;;;;;0.10;0.10;;;2.30;99.90;;;;;;5033683;28;20021;-69
2022/01/07 11:36:01;;;;;;;0.10;0.10;;;2.20;99.90;;;;;;5034842;28;20036;-70
2022/01/07 11:38:38;;;;;;;0.10;0.10;;;2.20;99.90;;;;;;5035813;28;20029;-70
2022/01/07 11:41:08;;;;;;;1.10;1.10;;;2.30;99.90;;;;;;5034949;28;20029;-70
2022/01/07 11:43:37;;;;;;;0.10;0.10;;;2.40;99.90;;;;;;5036157;28;20081;-80
2022/01/07 11:46:23;;;;;;;0.10;0.10;;;2.60;99.90;;;;;;5037796;28;20060;-83
2022/01/07 11:48:49;;;;;;;0.10;0.10;;;2.70;99.90;;;;;;5038988;28;20021;-86
2022/01/07 11:51:16;;;;;;;0.10;0.10;;;2.70;99.90;;;;;;5040107;28;20040;-79
2022/01/07 11:53:41;;;;;;;0.10;0.10;;;2.80;99.90;;;;;;5046131;28;20017;-83
2022/01/07 11:56:10;;;;;;;0.10;0.10;;;2.90;99.90;;;;;;5058903;28;20028;-72
2022/01/07 11:58:56;;;;;;;0.20;0.20;;;2.90;99.90;;;;;;5044424;28;20160;-72
2022/01/07 12:01:23;;;;;;;0.10;0.10;;;3.00;99.90;;;;;;5044115;28;20033;-72
2022/01/07 12:03:49;;;;;;;0.10;0.10;;;3.10;99.90;;;;;;5033468;28;20096;-73
2022/01/07 12:06:17;;;;;;;0.25;0.25;;;3.10;99.90;;;;;;5036554;28;20029;-72
2022/01/07 12:08:58;;;;;;;0.30;0.30;;;3.20;99.90;;;;;;5046459;28;20444;-72
2022/01/07 12:11:50;;;;;;;0.08;0.08;;;3.10;99.90;;;;;;5055229;28;20052;-72
2022/01/07 12:14:19;;;;;;;0.47;0.47;;;2.90;99.90;;;;;;5048151;28;20029;-71
2022/01/07 12:16:53;;;;;;;0.10;0.10;;;2.90;99.90;;;;;;5045956;28;20032;-71
2022/01/07 12:19:19;;;;;;;0.10;0.10;;;3.00;99.90;;;;;;5035309;28;20033;-73
2022/01/07 12:21:47;;;;;;;0.10;0.10;;;3.20;99.90;;;;;;5034927;28;20516;-74
2022/01/07 12:24:15;;;;;;;0.10;0.10;;;3.10;99.90;;;;;;5032888;28;20064;-74
2022/01/07 12:26:41;;;;;;;0.10;0.10;;;3.00;99.90;;;;;;5039137;28;20029;-73
2022/01/07 12:29:21;;;;;;;0.10;0.10;;;3.00;99.90;;;;;;5034721;28;20056;-73
2022/01/07 12:31:50;;;;;;;0.10;0.10;;;2.90;99.90;;;;;;5032954;28;20036;-71
2022/01/07 12:34:28;;;;;;;0.10;0.10;;;2.90;99.90;;;;;;5039756;28;20025;-70
2022/01/07 12:36:58;;;;;;;0.10;0.10;;;2.80;99.90;;;;;;5033298;28;20052;-70
2022/01/07 12:39:30;;;;;;;0.10;0.10;;;3.00;99.90;;;;;;5032486;28;20036;-68
2022/01/07 12:41:56;;;;;;;0.10;0.10;;;3.00;99.90;;;;;;5036108;28;20025;-68
2022/01/07 12:44:23;;;;;;;0.10;0.10;;;3.10;99.90;;;;;;5033806;28;20056;-68
2022/01/07 12:46:54;;;;;;;0.10;0.10;;;3.20;99.90;;;;;;5033375;28;20036;-70
2022/01/07 12:49:31;;;;;;;0.10;0.10;;;3.30;99.90;;;;;;5034732;28;20040;-70
2022/01/07 12:52:06;;;;;;;0.10;0.10;;;3.30;99.90;;;;;;5032982;28;20453;-70
2022/01/07 12:54:32;;;;;;;0.10;0.10;;;3.30;99.90;;;;;;5034407;28;20035;-70
2022/01/07 12:56:58;;;;;;;0.10;0.10;;;3.60;99.90;;;;;;5033237;28;20021;-70
2022/01/07 12:59:25;;;;;;;0.10;0.10;;;3.70;99.90;;;;;;5032583;28;20729;-70
2022/01/07 13:01:51;;;;;;;0.10;0.10;;;4.00;99.90;;;;;;5034114;28;20112;-70
2022/01/07 13:04:20;;;;;;;0.10;0.10;;;4.00;99.90;;;;;;5033386;28;20553;-70
2022/01/07 13:06:51;;;;;;;0.10;0.10;;;4.00;99.90;;;;;;5032259;28;20455;-70